Time;durP1;ratioP1;P1;durP2;ratioP2;P2;SDS_P1;SDS_P2;PMS_P1;PMS_P2;Temp;Humidity;BMP_temperature;BMP_pressure;BME280_temperature;BME280_humidity;BME280_pressure;Samples;Min_cycle;Max_cycle;Signal;HPM_P1;HPM_P2
2023/12/31 00:00:36;;;;;;;76.38;43.35;;;;;;;0.93;100.00;95770.38;5048558;28;20078;-72
2023/12/31 00:03:02;;;;;;;66.53;41.33;;;;;;;0.87;100.00;95770.72;5050488;28;20035;-72
2023/12/31 00:05:27;;;;;;;62.85;36.47;;;;;;;0.71;100.00;95774.94;5044966;28;20052;-72
2023/12/31 00:07:53;;;;;;;58.97;36.00;;;;;;;0.71;100.00;95764.59;5048833;28;20505;-72
2023/12/31 00:10:18;;;;;;;69.18;43.72;;;;;;;0.69;100.00;95769.00;5045858;28;20181;-72
2023/12/31 00:12:44;;;;;;;58.72;36.60;;;;;;;0.64;100.00;95760.63;5052678;28;20032;-72
2023/12/31 00:15:10;;;;;;;45.13;25.38;;;;;;;0.68;100.00;95758.72;5036598;28;20025;-71
2023/12/31 00:17:35;;;;;;;38.25;24.52;;;;;;;0.70;100.00;95746.50;5046807;28;20029;-73
2023/12/31 00:20:02;;;;;;;58.80;30.95;;;;;;;0.65;100.00;95748.50;5045649;28;20051;-72
2023/12/31 00:22:27;;;;;;;43.70;25.77;;;;;;;0.62;100.00;95754.69;5045682;28;20056;-72
2023/12/31 00:24:54;;;;;;;34.90;21.02;;;;;;;0.70;100.00;95747.34;5045904;28;20083;-72
2023/12/31 00:27:20;;;;;;;45.28;25.98;;;;;;;0.72;100.00;95744.66;5037438;28;20041;-72
2023/12/31 00:29:45;;;;;;;48.65;26.08;;;;;;;0.64;100.00;95744.25;5043694;28;20186;-72
2023/12/31 00:32:11;;;;;;;39.92;26.15;;;;;;;0.64;100.00;95721.75;5047642;28;20028;-72
2023/12/31 00:34:37;;;;;;;41.25;23.60;;;;;;;0.64;100.00;95723.53;5049306;28;20035;-72
2023/12/31 00:37:03;;;;;;;41.28;23.88;;;;;;;0.68;100.00;95723.28;5047005;28;20021;-72
2023/12/31 00:39:29;;;;;;;42.08;25.00;;;;;;;0.75;100.00;95716.00;5047051;28;20056;-72
2023/12/31 00:41:54;;;;;;;32.60;19.65;;;;;;;0.64;100.00;95715.75;5049118;28;20061;-72
2023/12/31 00:44:20;;;;;;;34.38;17.65;;;;;;;0.68;100.00;95718.09;5042486;28;20452;-72
2023/12/31 00:46:45;;;;;;;27.70;17.05;;;;;;;0.70;100.00;95699.88;5046609;28;20498;-72
2023/12/31 00:49:10;;;;;;;26.00;17.48;;;;;;;0.63;100.00;95694.16;5046584;28;20367;-72
2023/12/31 00:51:36;;;;;;;26.40;18.48;;;;;;;0.59;100.00;95703.03;5050076;28;20029;-72
2023/12/31 00:54:01;;;;;;;28.20;18.70;;;;;;;0.53;100.00;95686.03;5045911;28;20083;-72
2023/12/31 00:56:26;;;;;;;31.80;18.58;;;;;;;0.54;100.00;95685.13;5046430;28;20115;-72
2023/12/31 00:58:52;;;;;;;23.20;16.95;;;;;;;0.58;100.00;95667.66;5050369;28;20029;-72
2023/12/31 01:01:17;;;;;;;33.08;21.75;;;;;;;0.58;100.00;95680.63;5047282;28;20070;-72
2023/12/31 01:03:43;;;;;;;26.73;17.95;;;;;;;0.62;100.00;95673.53;5044135;28;20100;-72
2023/12/31 01:06:08;;;;;;;24.05;17.05;;;;;;;0.59;100.00;95666.75;5048680;28;20027;-72
2023/12/31 01:08:34;;;;;;;22.77;17.00;;;;;;;0.54;100.00;95672.16;5048179;28;20028;-72
2023/12/31 01:10:59;;;;;;;41.92;25.63;;;;;;;0.47;100.00;95665.63;5050922;28;20052;-72
2023/12/31 01:13:25;;;;;;;36.75;20.75;;;;;;;0.52;100.00;95655.88;5048195;28;20090;-72
2023/12/31 01:15:50;;;;;;;35.88;22.40;;;;;;;0.50;100.00;95642.16;5044208;28;20084;-72
2023/12/31 01:18:15;;;;;;;25.25;16.73;;;;;;;0.51;100.00;95649.00;5046671;28;20032;-72
2023/12/31 01:20:41;;;;;;;25.70;17.52;;;;;;;0.60;100.00;95642.50;5045913;28;20037;-72
2023/12/31 01:23:06;;;;;;;21.55;17.50;;;;;;;0.59;100.00;95637.41;5026874;28;20024;-72
2023/12/31 01:25:31;;;;;;;24.52;18.15;;;;;;;0.59;100.00;95642.59;5052101;28;20021;-72
2023/12/31 01:27:57;;;;;;;19.92;14.38;;;;;;;0.62;100.00;95642.44;5048637;28;20413;-72
2023/12/31 01:30:23;;;;;;;20.77;14.13;;;;;;;0.62;100.00;95639.84;5049058;28;20025;-72
2023/12/31 01:32:50;;;;;;;26.45;18.90;;;;;;;0.59;100.00;95632.25;5048898;28;20089;-72
2023/12/31 01:35:16;;;;;;;25.35;18.33;;;;;;;0.62;100.00;95634.66;5047076;28;20029;-72
2023/12/31 01:37:41;;;;;;;30.90;19.38;;;;;;;0.60;100.00;95633.91;5044336;28;20136;-72
2023/12/31 01:40:08;;;;;;;18.98;12.75;;;;;;;0.60;100.00;95620.97;5046116;28;20020;-72
2023/12/31 01:42:33;;;;;;;20.98;14.70;;;;;;;0.70;100.00;95635.06;5043060;28;20022;-72
2023/12/31 01:44:59;;;;;;;19.58;12.13;;;;;;;0.78;100.00;95626.88;5037216;28;20029;-72
2023/12/31 01:47:25;;;;;;;11.23;10.00;;;;;;;0.95;100.00;95623.38;5045074;28;20173;-73
2023/12/31 01:49:51;;;;;;;12.82;10.07;;;;;;;0.93;100.00;95607.91;5042293;28;20025;-72
2023/12/31 01:52:16;;;;;;;40.08;25.73;;;;;;;1.12;100.00;95617.25;5042566;28;20031;-72
2023/12/31 01:54:42;;;;;;;14.05;10.05;;;;;;;1.27;100.00;95595.63;5042449;28;20120;-72
2023/12/31 01:57:11;;;;;;;10.90;8.98;;;;;;;1.39;100.00;95594.09;5047833;28;20064;-72
2023/12/31 01:59:37;;;;;;;10.13;8.73;;;;;;;1.38;100.00;95589.00;5041373;28;20028;-72
2023/12/31 02:02:03;;;;;;;13.23;9.30;;;;;;;1.32;100.00;95571.19;5047851;28;20021;-72
2023/12/31 02:04:35;;;;;;;28.15;19.92;;;;;;;1.26;100.00;95562.84;5046531;28;20021;-72
2023/12/31 02:07:01;;;;;;;16.27;10.25;;;;;;;1.23;100.00;95577.75;5041455;28;20725;-72
2023/12/31 02:09:28;;;;;;;12.82;10.25;;;;;;;1.18;100.00;95574.56;5045975;28;20033;-72
2023/12/31 02:11:54;;;;;;;19.75;14.35;;;;;;;1.12;100.00;95581.78;5049073;28;20040;-72
2023/12/31 02:14:19;;;;;;;33.75;21.55;;;;;;;1.03;100.00;95577.13;5047785;28;20078;-72
2023/12/31 02:16:44;;;;;;;28.63;18.63;;;;;;;1.06;100.00;95592.50;5047877;28;20079;-72
2023/12/31 02:19:10;;;;;;;16.95;11.10;;;;;;;1.14;100.00;95586.91;5043758;28;20065;-72
2023/12/31 02:21:35;;;;;;;23.02;15.30;;;;;;;1.08;100.00;95579.44;5050391;28;20031;-73
2023/12/31 02:24:01;;;;;;;11.48;9.35;;;;;;;1.04;100.00;95586.56;5046723;28;20398;-72
2023/12/31 02:26:28;;;;;;;37.95;22.35;;;;;;;1.05;100.00;95577.88;5047954;28;20029;-72
2023/12/31 02:28:55;;;;;;;14.15;10.70;;;;;;;1.17;100.00;95565.13;5042806;28;20109;-72
2023/12/31 02:31:20;;;;;;;9.45;7.63;;;;;;;1.32;100.00;95556.47;5043810;28;20038;-72
2023/12/31 02:33:45;;;;;;;3.40;3.20;;;;;;;2.78;100.00;95559.91;5065337;28;20069;-72
2023/12/31 02:36:11;;;;;;;2.72;2.53;;;;;;;4.39;100.00;95577.13;5044062;28;20461;-72
2023/12/31 02:38:36;;;;;;;3.40;3.10;;;;;;;5.32;100.00;95534.00;5048797;28;20047;-73
2023/12/31 02:41:02;;;;;;;2.75;2.55;;;;;;;5.86;100.00;95477.72;5042329;28;20039;-73
2023/12/31 02:43:27;;;;;;;3.92;2.72;;;;;;;6.35;100.00;95467.00;5041592;28;20021;-73
2023/12/31 02:45:53;;;;;;;3.83;2.65;;;;;;;6.79;100.00;95446.13;5046437;28;20030;-72
2023/12/31 02:48:18;;;;;;;3.90;2.92;;;;;;;6.97;100.00;95453.44;5047064;28;20044;-73
2023/12/31 02:50:43;;;;;;;2.85;2.75;;;;;;;7.10;100.00;95448.81;5058440;28;20037;-73
2023/12/31 02:53:09;;;;;;;2.88;2.67;;;;;;;7.41;100.00;95435.81;5051614;28;20044;-73
2023/12/31 02:55:34;;;;;;;3.13;2.83;;;;;;;7.62;100.00;95434.13;5052281;28;20025;-73
2023/12/31 02:57:59;;;;;;;3.00;2.80;;;;;;;7.69;100.00;95416.91;5050465;28;20082;-73
2023/12/31 03:00:25;;;;;;;3.47;3.17;;;;;;;7.89;100.00;95418.66;5047461;28;20033;-73
2023/12/31 03:02:50;;;;;;;3.00;2.80;;;;;;;7.84;100.00;95414.78;5043065;28;20075;-72
2023/12/31 03:05:16;;;;;;;2.88;2.67;;;;;;;8.03;100.00;95393.06;5051210;28;20017;-73
2023/12/31 03:07:41;;;;;;;2.42;2.33;;;;;;;8.21;100.00;95406.34;5049133;28;20048;-73
2023/12/31 03:10:07;;;;;;;3.30;2.42;;;;;;;8.41;100.00;95398.53;5043797;28;20017;-72
2023/12/31 03:12:32;;;;;;;2.30;2.20;;;;;;;8.36;100.00;95383.19;5044729;28;20033;-73
2023/12/31 03:14:58;;;;;;;2.78;2.58;;;;;;;8.26;100.00;95396.28;5047014;28;20021;-73
2023/12/31 03:17:23;;;;;;;4.97;2.90;;;;;;;8.58;100.00;95376.06;5051203;28;20024;-73
2023/12/31 03:19:50;;;;;;;2.95;2.75;;;;;;;8.49;100.00;95361.94;5051158;28;20035;-73
2023/12/31 03:22:15;;;;;;;3.35;3.05;;;;;;;8.65;100.00;95363.22;5052442;28;20527;-72
2023/12/31 03:24:42;;;;;;;3.20;2.90;;;;;;;8.72;100.00;95357.28;5040048;28;20028;-73
2023/12/31 03:27:09;;;;;;;3.08;2.88;;;;;;;8.73;100.00;95350.22;5049720;28;20021;-73
2023/12/31 03:29:35;;;;;;;5.32;3.25;;;;;;;8.68;100.00;95339.31;5046207;28;20025;-73
2023/12/31 03:32:00;;;;;;;2.97;2.67;;;;;;;8.56;100.00;95341.25;5060243;28;20032;-73
2023/12/31 03:34:26;;;;;;;2.90;2.67;;;;;;;8.66;100.00;95334.22;5047722;28;20116;-73
2023/12/31 03:36:51;;;;;;;3.00;2.58;;;;;;;8.81;100.00;95307.53;5044323;28;20021;-73
2023/12/31 03:39:16;;;;;;;3.20;3.00;;;;;;;8.75;100.00;95316.81;5049943;28;20071;-72
2023/12/31 03:41:42;;;;;;;3.58;2.95;;;;;;;8.69;100.00;95305.06;5054077;28;20048;-73
2023/12/31 03:44:08;;;;;;;3.25;2.97;;;;;;;8.87;100.00;95304.38;5044729;28;20021;-73
2023/12/31 03:46:33;;;;;;;2.95;2.75;;;;;;;8.74;100.00;95294.97;5046407;28;20033;-73
2023/12/31 03:48:59;;;;;;;2.70;2.50;;;;;;;9.01;100.00;95305.72;5047184;28;20053;-73
2023/12/31 03:51:24;;;;;;;2.17;2.08;;;;;;;8.89;100.00;95284.03;5044147;28;20021;-73
2023/12/31 03:53:50;;;;;;;2.63;2.53;;;;;;;9.12;100.00;95283.72;5041838;28;20025;-73
2023/12/31 03:56:15;;;;;;;2.90;2.70;;;;;;;8.83;100.00;95287.22;5049161;28;20488;-73
2023/12/31 03:58:40;;;;;;;2.38;2.28;;;;;;;8.89;100.00;95290.09;5042812;28;20105;-73
2023/12/31 04:01:06;;;;;;;2.50;2.30;;;;;;;9.07;100.00;95281.50;5048248;28;20480;-73
2023/12/31 04:03:31;;;;;;;3.80;2.60;;;;;;;9.16;100.00;95269.31;5045712;28;20443;-73
2023/12/31 04:05:57;;;;;;;2.60;2.40;;;;;;;9.01;100.00;95292.59;5044961;28;20029;-73
2023/12/31 04:08:24;;;;;;;3.03;2.80;;;;;;;8.89;100.00;95287.47;5047302;28;20115;-73
2023/12/31 04:10:49;;;;;;;4.45;4.05;;;;;;;7.94;100.00;95309.94;5047009;28;20025;-74
2023/12/31 04:13:16;;;;;;;4.43;4.13;;;;;;;7.02;100.00;95323.00;5057426;28;20035;-74
2023/12/31 04:15:41;;;;;;;4.63;4.22;;;;;;;6.62;100.00;95334.97;5043373;28;20060;-73
2023/12/31 04:18:07;;;;;;;9.32;8.52;;;;;;;6.24;100.00;95331.91;5046909;28;20028;-73
2023/12/31 04:20:32;;;;;;;5.82;5.22;;;;;;;5.48;100.00;95334.41;5048637;28;20612;-73
2023/12/31 04:22:58;;;;;;;5.28;4.55;;;;;;;5.19;100.00;95358.34;5046652;28;20464;-73
2023/12/31 04:25:23;;;;;;;4.20;3.83;;;;;;;5.12;100.00;95377.09;5043487;28;20088;-73
2023/12/31 04:27:48;;;;;;;5.88;4.00;;;;;;;5.25;100.00;95365.72;5047009;28;20384;-73
2023/12/31 04:30:14;;;;;;;11.25;10.25;;;;;;;4.68;100.00;95383.84;5056675;28;20026;-73
2023/12/31 04:32:39;;;;;;;13.88;11.20;;;;;;;4.61;100.00;95382.66;5047358;28;20045;-73
2023/12/31 04:35:05;;;;;;;3.47;3.28;;;;;;;4.32;100.00;95385.63;5038213;28;20025;-73
2023/12/31 04:37:31;;;;;;;3.72;3.45;;;;;;;4.70;100.00;95369.78;5053322;28;20029;-73
2023/12/31 04:39:56;;;;;;;4.10;3.80;;;;;;;4.47;100.00;95381.88;5043251;28;20037;-74
2023/12/31 04:42:22;;;;;;;4.82;4.53;;;;;;;4.22;100.00;95394.06;5040649;28;20545;-73
2023/12/31 04:44:47;;;;;;;5.45;4.70;;;;;;;4.30;100.00;95378.72;5048494;28;20090;-73
2023/12/31 04:47:13;;;;;;;4.50;4.10;;;;;;;4.08;100.00;95386.41;5044822;28;20053;-73
2023/12/31 04:49:38;;;;;;;3.88;3.55;;;;;;;4.03;100.00;95391.97;5045158;28;20037;-74
2023/12/31 04:52:04;;;;;;;8.77;8.05;;;;;;;4.09;100.00;95383.72;5048859;28;20036;-73
2023/12/31 04:54:29;;;;;;;6.65;6.07;;;;;;;4.12;100.00;95388.69;5046917;28;20025;-73
2023/12/31 04:56:55;;;;;;;5.75;5.28;;;;;;;4.07;100.00;95395.16;5047946;28;20517;-73
2023/12/31 04:59:20;;;;;;;5.28;4.00;;;;;;;4.20;100.00;95390.75;5044124;28;20088;-73
2023/12/31 05:01:49;;;;;;;4.85;3.75;;;;;;;4.38;100.00;95383.38;5051078;28;20108;-73
2023/12/31 05:04:14;;;;;;;6.07;4.68;;;;;;;4.21;100.00;95400.22;5053718;28;20058;-73
2023/12/31 05:06:40;;;;;;;7.90;5.10;;;;;;;4.23;100.00;95385.31;5054736;28;20097;-73
2023/12/31 05:09:08;;;;;;;4.22;3.83;;;;;;;4.07;100.00;95396.00;5052926;28;20111;-73
2023/12/31 05:11:34;;;;;;;4.07;3.75;;;;;;;3.97;100.00;95401.03;5047012;28;20025;-73
2023/12/31 05:13:59;;;;;;;3.60;3.30;;;;;;;4.09;100.00;95391.53;5046879;28;20378;-73
2023/12/31 05:16:26;;;;;;;5.90;3.85;;;;;;;3.91;100.00;95396.28;5048083;28;20437;-73
2023/12/31 05:18:53;;;;;;;4.22;3.85;;;;;;;3.93;100.00;95393.53;5039849;28;20029;-73
2023/12/31 05:21:19;;;;;;;6.10;4.57;;;;;;;3.88;100.00;95406.91;5032899;28;20036;-74
2023/12/31 05:23:44;;;;;;;7.78;4.85;;;;;;;3.78;100.00;95401.50;5038772;28;20017;-73
2023/12/31 05:26:10;;;;;;;4.10;3.70;;;;;;;3.81;100.00;95406.50;5052939;28;20029;-73
2023/12/31 05:28:35;;;;;;;4.05;3.70;;;;;;;3.77;100.00;95399.84;5052834;28;20112;-73
2023/12/31 05:31:00;;;;;;;3.88;3.47;;;;;;;3.82;100.00;95418.59;5053237;28;20086;-73
2023/12/31 05:33:26;;;;;;;5.60;4.53;;;;;;;3.72;100.00;95413.19;5045714;28;20045;-76
2023/12/31 05:35:51;;;;;;;12.45;10.10;;;;;;;3.67;100.00;95409.22;5034737;28;20056;-73
2023/12/31 05:38:17;;;;;;;8.82;6.15;;;;;;;3.85;100.00;95407.09;5048213;28;20031;-74
2023/12/31 05:40:43;;;;;;;5.72;5.20;;;;;;;3.79;100.00;95403.19;5046906;28;20086;-73
2023/12/31 05:43:08;;;;;;;4.90;4.38;;;;;;;3.73;100.00;95395.78;5056181;28;20029;-73
2023/12/31 05:45:34;;;;;;;4.88;4.40;;;;;;;3.72;100.00;95394.94;5046991;28;20025;-73
2023/12/31 05:47:59;;;;;;;5.95;4.85;;;;;;;3.58;100.00;95392.47;5053208;28;20069;-74
2023/12/31 05:50:24;;;;;;;7.90;5.38;;;;;;;3.58;100.00;95405.47;5054471;28;20049;-73
2023/12/31 05:52:50;;;;;;;6.55;5.35;;;;;;;3.47;100.00;95410.59;5048828;28;20033;-73
2023/12/31 05:55:15;;;;;;;4.13;3.80;;;;;;;3.44;100.00;95407.28;5047317;28;20030;-73
2023/12/31 05:57:43;;;;;;;4.60;4.18;;;;;;;3.80;100.00;95399.63;5062274;28;20160;-73
2023/12/31 06:00:09;;;;;;;5.18;4.68;;;;;;;3.91;100.00;95387.63;5045778;28;20022;-71
2023/12/31 06:02:35;;;;;;;6.38;4.82;;;;;;;3.77;100.00;95399.00;5045781;28;20033;-71
2023/12/31 06:05:01;;;;;;;4.05;3.65;;;;;;;3.79;100.00;95376.28;5053999;28;20100;-70
2023/12/31 06:07:27;;;;;;;4.45;4.13;;;;;;;3.78;100.00;95383.28;5042366;28;20029;-71
2023/12/31 06:09:52;;;;;;;4.70;4.20;;;;;;;3.71;100.00;95392.44;5045161;28;20025;-73
2023/12/31 06:12:18;;;;;;;3.63;3.33;;;;;;;3.72;100.00;95387.13;5049274;28;20025;-73
2023/12/31 06:14:43;;;;;;;5.68;3.83;;;;;;;3.68;100.00;95406.53;5043280;28;20029;-72
2023/12/31 06:17:08;;;;;;;6.55;3.90;;;;;;;3.62;100.00;95412.13;5045570;28;20033;-73
2023/12/31 06:19:34;;;;;;;3.85;3.55;;;;;;;3.64;100.00;95405.06;5044833;28;20033;-73
2023/12/31 06:21:59;;;;;;;4.20;3.80;;;;;;;3.83;100.00;95406.38;5050635;28;20037;-73
2023/12/31 06:24:25;;;;;;;5.18;3.08;;;;;;;3.67;100.00;95412.69;5053343;28;20056;-73
2023/12/31 06:26:52;;;;;;;5.35;4.90;;;;;;;3.56;100.00;95433.41;5052054;28;20099;-73
2023/12/31 06:29:17;;;;;;;6.50;5.05;;;;;;;3.46;100.00;95427.16;5050352;28;20075;-73
2023/12/31 06:31:43;;;;;;;4.75;4.40;;;;;;;3.44;100.00;95441.13;5054317;28;20029;-73
2023/12/31 06:34:08;;;;;;;4.75;4.35;;;;;;;3.59;100.00;95448.81;5043258;28;20091;-73
2023/12/31 06:36:33;;;;;;;4.85;4.18;;;;;;;3.63;100.00;95454.63;5046318;28;20029;-73
2023/12/31 06:38:59;;;;;;;3.20;3.00;;;;;;;3.75;100.00;95437.34;5049146;28;20086;-74
2023/12/31 06:41:24;;;;;;;4.15;3.53;;;;;;;3.72;100.00;95446.19;5044797;28;20108;-73
2023/12/31 06:43:50;;;;;;;4.15;3.75;;;;;;;3.68;100.00;95447.34;5043094;28;20040;-73
2023/12/31 06:46:15;;;;;;;4.22;3.83;;;;;;;3.72;100.00;95444.44;5046484;28;20048;-73
2023/12/31 06:48:40;;;;;;;4.25;3.75;;;;;;;3.74;100.00;95441.69;5043456;28;20087;-72
2023/12/31 06:51:06;;;;;;;3.63;3.30;;;;;;;3.76;100.00;95436.41;5047259;28;20036;-74
2023/12/31 06:53:33;;;;;;;3.90;3.60;;;;;;;3.88;100.00;95438.16;5042179;28;20037;-73
2023/12/31 06:56:06;;;;;;;5.70;3.95;;;;;;;3.87;100.00;95439.09;5049233;28;20021;-74
2023/12/31 06:58:31;;;;;;;4.13;3.83;;;;;;;3.99;100.00;95416.56;5049876;28;20032;-74
2023/12/31 07:00:56;;;;;;;3.58;3.38;;;;;;;3.83;100.00;95415.03;5048165;28;20492;-73
2023/12/31 07:03:22;;;;;;;4.18;3.78;;;;;;;3.75;100.00;95416.50;5047847;28;20436;-73
2023/12/31 07:05:47;;;;;;;4.50;3.60;;;;;;;3.65;100.00;95421.53;5047587;28;20035;-72
2023/12/31 07:08:13;;;;;;;4.57;3.97;;;;;;;4.14;100.00;95432.91;5049341;28;20021;-74
2023/12/31 07:10:39;;;;;;;4.65;4.25;;;;;;;3.99;100.00;95411.38;5046815;28;20084;-73
2023/12/31 07:13:04;;;;;;;6.35;5.75;;;;;;;4.24;100.00;95392.19;5048252;28;20025;-73
2023/12/31 07:15:30;;;;;;;8.40;5.93;;;;;;;4.40;100.00;95398.91;5047081;28;20843;-73
2023/12/31 07:17:56;;;;;;;5.63;5.13;;;;;;;4.34;100.00;95399.38;5047712;28;20068;-73
2023/12/31 07:20:22;;;;;;;4.60;4.20;;;;;;;4.28;100.00;95380.59;5050224;28;20117;-73
2023/12/31 07:22:47;;;;;;;4.32;3.97;;;;;;;4.24;100.00;95389.59;5050907;28;20450;-73
2023/12/31 07:25:12;;;;;;;3.97;3.55;;;;;;;4.20;100.00;95409.00;5047519;28;20068;-73
2023/12/31 07:27:38;;;;;;;4.43;4.03;;;;;;;4.11;100.00;95401.84;5049095;28;20025;-73
2023/12/31 07:30:04;;;;;;;9.00;5.10;;;;;;;4.25;100.00;95414.69;5045656;28;20025;-73
2023/12/31 07:32:29;;;;;;;6.00;4.28;;;;;;;4.17;100.00;95409.22;5045539;28;20560;-74
2023/12/31 07:34:55;;;;;;;4.75;4.38;;;;;;;4.22;100.00;95403.69;5048687;28;20026;-74
2023/12/31 07:37:21;;;;;;;6.53;5.90;;;;;;;4.40;100.00;95417.16;5045381;28;20536;-73
2023/12/31 07:39:47;;;;;;;8.88;5.47;;;;;;;4.51;100.00;95396.34;5050281;28;20021;-73
2023/12/31 07:42:12;;;;;;;4.80;4.40;;;;;;;4.54;100.00;95397.91;5044018;28;20097;-74
2023/12/31 07:44:38;;;;;;;5.22;4.40;;;;;;;4.48;100.00;95396.56;5046797;28;20025;-73
2023/12/31 07:47:03;;;;;;;13.90;9.90;;;;;;;4.51;100.00;95408.56;5045695;28;20057;-73
2023/12/31 07:49:30;;;;;;;11.18;7.82;;;;;;;4.53;100.00;95407.53;5044266;28;20084;-73
2023/12/31 07:51:55;;;;;;;9.20;7.57;;;;;;;4.53;100.00;95417.94;5046990;28;20426;-73
2023/12/31 07:54:21;;;;;;;4.63;4.28;;;;;;;4.56;100.00;95417.72;5050654;28;20033;-73
2023/12/31 07:56:46;;;;;;;7.03;5.50;;;;;;;4.50;100.00;95412.94;5046204;28;20025;-73
2023/12/31 07:59:12;;;;;;;7.45;6.65;;;;;;;4.54;100.00;95413.56;5045085;28;20029;-73
2023/12/31 08:01:37;;;;;;;10.18;7.72;;;;;;;4.49;100.00;95393.03;5050829;28;20048;-73
2023/12/31 08:04:03;;;;;;;5.70;5.10;;;;;;;4.46;100.00;95406.28;5052065;28;20138;-73
2023/12/31 08:06:28;;;;;;;7.43;5.43;;;;;;;4.59;100.00;95390.56;5045119;28;20041;-73
2023/12/31 08:08:53;;;;;;;7.65;5.10;;;;;;;4.65;100.00;95384.09;5045773;28;20046;-73
2023/12/31 08:11:21;;;;;;;5.43;4.90;;;;;;;4.44;100.00;95401.19;5044528;28;20068;-73
2023/12/31 08:13:48;;;;;;;7.10;6.40;;;;;;;4.41;100.00;95408.41;5043185;28;20276;-73
2023/12/31 08:16:13;;;;;;;4.80;4.40;;;;;;;4.48;100.00;95388.75;5042254;28;20052;-73
2023/12/31 08:18:38;;;;;;;7.45;4.90;;;;;;;4.57;100.00;95398.53;5038185;28;20029;-74
2023/12/31 08:21:04;;;;;;;7.13;5.85;;;;;;;4.72;100.00;95404.38;5047847;28;20028;-73
2023/12/31 08:23:29;;;;;;;11.98;8.90;;;;;;;4.68;100.00;95402.94;5050402;28;20451;-73
2023/12/31 08:25:55;;;;;;;7.63;6.90;;;;;;;4.73;100.00;95392.16;5047709;28;20021;-73
2023/12/31 08:28:22;;;;;;;5.65;5.10;;;;;;;4.86;100.00;95392.94;5052466;28;20029;-74
2023/12/31 08:30:48;;;;;;;7.78;6.65;;;;;;;4.73;100.00;95382.56;5049301;28;20393;-73
2023/12/31 08:33:13;;;;;;;6.97;6.25;;;;;;;4.72;100.00;95395.72;5052353;28;20032;-74
2023/12/31 08:35:43;;;;;;;28.05;23.95;;;;;;;4.73;100.00;95393.00;5047287;28;20118;-73
2023/12/31 08:38:09;;;;;;;12.93;10.25;;;;;;;4.86;100.00;95398.16;5050022;28;20029;-73
2023/12/31 08:40:34;;;;;;;9.95;8.95;;;;;;;4.92;100.00;95390.81;5042433;28;20040;-72
2023/12/31 08:43:01;;;;;;;6.25;5.10;;;;;;;6.52;100.00;95382.00;5036360;28;20486;-73
2023/12/31 08:45:27;;;;;;;3.70;3.25;;;;;;;7.97;100.00;95365.56;5049644;28;20032;-72
2023/12/31 08:47:52;;;;;;;6.13;4.70;;;;;;;8.51;100.00;95360.06;5042524;28;20421;-75
2023/12/31 08:50:18;;;;;;;48.25;41.05;;;;;;;8.67;100.00;95363.91;5045687;28;20525;-74
2023/12/31 08:52:45;;;;;;;54.28;48.70;;;;;;;7.78;100.00;95365.50;5046611;28;20036;-75
2023/12/31 08:55:12;;;;;;;34.80;31.90;;;;;;;7.09;100.00;95368.63;5053986;28;20025;-74
2023/12/31 08:57:40;;;;;;;78.20;71.47;;;;;;;6.58;100.00;95380.66;5041348;28;20029;-73
2023/12/31 09:00:07;;;;;;;23.30;21.17;;;;;;;6.27;100.00;95386.56;5047455;28;20029;-72
2023/12/31 09:02:32;;;;;;;10.50;9.50;;;;;;;6.15;100.00;95392.78;5050073;28;20493;-74
2023/12/31 09:04:58;;;;;;;20.42;18.55;;;;;;;6.02;100.00;95390.31;5052343;28;20044;-73
2023/12/31 09:07:23;;;;;;;18.02;14.90;;;;;;;5.96;100.00;95390.75;5048952;28;20025;-75
2023/12/31 09:09:49;;;;;;;25.25;19.40;;;;;;;5.98;100.00;95391.50;5054643;28;20057;-75
2023/12/31 09:12:14;;;;;;;9.20;8.00;;;;;;;5.99;100.00;95393.97;5047040;28;20017;-75
2023/12/31 09:14:39;;;;;;;9.43;7.68;;;;;;;6.21;100.00;95400.13;5047588;28;20028;-75
2023/12/31 09:17:05;;;;;;;8.02;6.93;;;;;;;5.96;100.00;95393.38;5047612;28;20025;-74
2023/12/31 09:19:30;;;;;;;19.05;17.10;;;;;;;5.98;100.00;95399.31;5042019;28;20025;-73
2023/12/31 09:21:56;;;;;;;29.38;26.80;;;;;;;6.09;100.00;95404.56;5050192;28;20537;-74
2023/12/31 09:24:21;;;;;;;14.35;10.77;;;;;;;6.05;100.00;95415.38;5054127;28;20021;-74
2023/12/31 09:26:46;;;;;;;55.97;49.97;;;;;;;6.06;100.00;95401.34;5045144;28;20028;-73
2023/12/31 09:29:13;;;;;;;5.57;5.18;;;;;;;6.62;100.00;95410.00;5053101;28;20029;-73
2023/12/31 09:31:38;;;;;;;3.40;3.15;;;;;;;7.99;100.00;95400.34;5053096;28;20029;-74
2023/12/31 09:34:03;;;;;;;3.08;2.72;;;;;;;9.49;100.00;95363.50;5058090;28;20497;-73
2023/12/31 09:36:29;;;;;;;4.90;2.45;;;;;;;10.03;100.00;95356.63;5058235;28;20036;-73
2023/12/31 09:38:54;;;;;;;5.65;3.65;;;;;;;10.23;100.00;95346.00;5054377;28;20055;-74
2023/12/31 09:41:24;;;;;;;5.53;2.88;;;;;;;10.48;100.00;95354.16;5052591;28;20112;-76
2023/12/31 09:43:54;;;;;;;2.50;2.40;;;;;;;10.60;100.00;95337.19;5056868;28;20525;-74
2023/12/31 09:46:30;;;;;;;2.65;2.45;;;;;;;10.87;100.00;95327.53;5038463;28;20064;-72
2023/12/31 09:48:57;;;;;;;2.90;2.65;;;;;;;10.82;100.00;95314.00;5057853;28;20051;-72
2023/12/31 09:51:23;;;;;;;3.17;2.97;;;;;;;10.81;100.00;95316.78;5055215;28;20021;-74
2023/12/31 09:53:52;;;;;;;2.53;2.33;;;;;;;10.93;100.00;95309.44;5056225;28;20036;-73
2023/12/31 09:56:21;;;;;;;3.22;2.92;;;;;;;10.97;100.00;95295.84;5058065;28;20078;-73
2023/12/31 09:58:50;;;;;;;3.95;3.00;;;;;;;11.00;100.00;95305.25;5057850;28;20029;-74
2023/12/31 10:01:15;;;;;;;4.80;2.92;;;;;;;11.22;100.00;95308.34;5057077;28;20037;-73
2023/12/31 10:03:44;;;;;;;7.13;2.50;;;;;;;11.37;100.00;95282.25;5053480;28;20490;-73
2023/12/31 10:06:10;;;;;;;3.25;2.35;;;;;;;11.38;100.00;95276.78;5054074;28;20032;-73
2023/12/31 10:08:38;;;;;;;2.88;2.58;;;;;;;11.40;100.00;95269.59;5046917;28;20029;-72
2023/12/31 10:11:03;;;;;;;5.35;2.33;;;;;;;11.53;100.00;95260.41;5051764;28;20040;-73
2023/12/31 10:13:30;;;;;;;5.32;3.20;;;;;;;11.65;100.00;95243.31;5042820;28;20033;-73
2023/12/31 10:15:55;;;;;;;3.42;3.13;;;;;;;11.61;100.00;95234.91;5057286;28;20029;-73
2023/12/31 10:18:25;;;;;;;3.67;3.38;;;;;;;11.57;100.00;95238.84;5057176;28;20040;-74
2023/12/31 10:20:50;;;;;;;2.17;2.00;;;;;;;11.78;100.00;95234.13;5055574;28;20474;-72
2023/12/31 10:23:16;;;;;;;2.65;2.45;;;;;;;11.81;100.00;95224.06;5048084;28;20052;-73
2023/12/31 10:25:42;;;;;;;3.20;2.67;;;;;;;11.72;100.00;95223.22;5044934;28;20112;-73
2023/12/31 10:28:08;;;;;;;2.35;2.22;;;;;;;12.07;100.00;95206.53;5045705;28;20604;-73
2023/12/31 10:30:37;;;;;;;2.17;2.03;;;;;;;12.15;100.00;95196.78;5048270;28;20033;-72
2023/12/31 10:33:11;;;;;;;2.08;1.98;;;;;;;11.84;100.00;95201.84;5049128;28;20048;-73
2023/12/31 10:35:36;;;;;;;3.13;2.47;;;;;;;11.85;100.00;95198.22;5035759;28;20501;-72
2023/12/31 10:38:07;;;;;;;3.25;2.95;;;;;;;12.04;100.00;95197.91;5044798;28;20370;-73
2023/12/31 10:40:35;;;;;;;2.47;2.28;;;;;;;11.95;100.00;95188.31;5038973;28;20040;-72
2023/12/31 10:43:06;;;;;;;3.13;2.92;;;;;;;11.90;100.00;95186.16;5050387;28;20099;-71
2023/12/31 10:45:33;;;;;;;5.25;2.90;;;;;;;11.84;100.00;95175.47;5056879;28;20036;-72
2023/12/31 10:48:03;;;;;;;4.80;2.63;;;;;;;12.04;100.00;95184.72;5044274;28;20168;-75
2023/12/31 10:50:30;;;;;;;3.88;2.60;;;;;;;11.87;100.00;95178.59;5055019;28;20525;-74
2023/12/31 10:53:01;;;;;;;2.92;2.72;;;;;;;11.97;100.00;95183.72;5056980;28;20060;-73
2023/12/31 10:55:27;;;;;;;2.00;1.90;;;;;;;11.84;100.00;95194.75;5043594;28;20041;-74
2023/12/31 10:57:53;;;;;;;4.10;2.60;;;;;;;11.89;100.00;95173.97;5051550;28;20482;-73
2023/12/31 11:00:19;;;;;;;2.28;2.10;;;;;;;12.17;100.00;95170.25;5037555;28;20433;-72
2023/12/31 11:02:46;;;;;;;2.47;2.25;;;;;;;12.40;100.00;95165.13;5045870;28;20028;-72
2023/12/31 11:05:16;;;;;;;3.08;2.78;;;;;;;12.30;100.00;95162.66;5047982;28;20024;-72
2023/12/31 11:07:41;;;;;;;2.60;2.40;;;;;;;12.36;100.00;95171.72;5043581;28;20437;-72
2023/12/31 11:10:08;;;;;;;2.00;1.90;;;;;;;12.27;100.00;95154.25;5052047;28;20138;-72
2023/12/31 11:12:34;;;;;;;3.13;2.88;;;;;;;12.23;100.00;95161.66;5050848;28;20021;-71
2023/12/31 11:15:11;;;;;;;4.10;2.40;;;;;;;12.22;100.00;95156.56;5049580;28;20037;-73
2023/12/31 11:18:15;;;;;;;2.55;1.92;;;;;;;12.23;100.00;95145.81;5044378;28;20029;-72
2023/12/31 11:21:02;;;;;;;2.33;2.10;;;;;;;12.24;100.00;95147.47;5041450;28;20033;-73